sensor_id;sensor_type;location;lat;lon;timestamp;temperature;humidity
7248;DHT22;3665;51.034;13.642;2023-02-18T00:03:42;7.90;99.90
7248;DHT22;3665;51.034;13.642;2023-02-18T00:09:13;7.90;99.90
7248;DHT22;3665;51.034;13.642;2023-02-18T00:14:06;8.00;99.90
7248;DHT22;3665;51.034;13.642;2023-02-18T00:19:39;8.00;99.90
7248;DHT22;3665;51.034;13.642;2023-02-18T00:32:27;8.10;99.90
7248;DHT22;3665;51.034;13.642;2023-02-18T01:02:50;8.30;99.90
7248;DHT22;3665;51.034;13.642;2023-02-18T01:08:01;8.20;99.90
7248;DHT22;3665;51.034;13.642;2023-02-18T01:14:23;8.10;99.90
7248;DHT22;3665;51.034;13.642;2023-02-18T01:38:19;7.90;99.90
7248;DHT22;3665;51.034;13.642;2023-02-18T01:57:05;7.50;99.90
7248;DHT22;3665;51.034;13.642;2023-02-18T02:02:37;7.40;99.90
7248;DHT22;3665;51.034;13.642;2023-02-18T02:08:58;7.30;99.90
7248;DHT22;3665;51.034;13.642;2023-02-18T02:26:26;7.00;99.90
7248;DHT22;3665;51.034;13.642;2023-02-18T02:49:39;7.30;99.90
7248;DHT22;3665;51.034;13.642;2023-02-18T02:55:03;7.30;99.90
7248;DHT22;3665;51.034;13.642;2023-02-18T02:59:51;7.40;84.30
7248;DHT22;3665;51.034;13.642;2023-02-18T03:05:12;7.50;72.30
7248;DHT22;3665;51.034;13.642;2023-02-18T03:10:47;7.40;65.30
7248;DHT22;3665;51.034;13.642;2023-02-18T03:15:38;7.30;72.00
7248;DHT22;3665;51.034;13.642;2023-02-18T03:20:55;7.30;78.20
7248;DHT22;3665;51.034;13.642;2023-02-18T03:25:43;7.40;76.90
7248;DHT22;3665;51.034;13.642;2023-02-18T03:31:31;7.30;89.50
7248;DHT22;3665;51.034;13.642;2023-02-18T03:36:16;7.30;90.30
7248;DHT22;3665;51.034;13.642;2023-02-18T03:41:10;7.40;97.30
7248;DHT22;3665;51.034;13.642;2023-02-18T03:45:53;7.30;89.90
7248;DHT22;3665;51.034;13.642;2023-02-18T03:50:43;7.30;93.30
7248;DHT22;3665;51.034;13.642;2023-02-18T03:55:33;7.30;97.30
7248;DHT22;3665;51.034;13.642;2023-02-18T04:00:19;7.30;95.60
7248;DHT22;3665;51.034;13.642;2023-02-18T04:05:02;7.30;99.90
7248;DHT22;3665;51.034;13.642;2023-02-18T04:09:58;7.30;99.90
7248;DHT22;3665;51.034;13.642;2023-02-18T04:14:41;7.20;99.90
7248;DHT22;3665;51.034;13.642;2023-02-18T04:19:33;7.20;99.90
7248;DHT22;3665;51.034;13.642;2023-02-18T04:24:17;7.30;99.90
7248;DHT22;3665;51.034;13.642;2023-02-18T04:29:08;7.30;99.90
7248;DHT22;3665;51.034;13.642;2023-02-18T04:33:52;7.50;99.90
7248;DHT22;3665;51.034;13.642;2023-02-18T04:38:44;7.40;99.90
7248;DHT22;3665;51.034;13.642;2023-02-18T04:43:30;7.40;99.90
7248;DHT22;3665;51.034;13.642;2023-02-18T04:48:21;7.30;92.50
7248;DHT22;3665;51.034;13.642;2023-02-18T04:53:05;7.40;93.90
7248;DHT22;3665;51.034;13.642;2023-02-18T04:57:52;7.40;99.90
7248;DHT22;3665;51.034;13.642;2023-02-18T05:02:42;7.40;99.90
7248;DHT22;3665;51.034;13.642;2023-02-18T05:07:29;7.30;99.90
7248;DHT22;3665;51.034;13.642;2023-02-18T05:12:18;7.40;99.90
7248;DHT22;3665;51.034;13.642;2023-02-18T05:17:10;7.30;99.90
7248;DHT22;3665;51.034;13.642;2023-02-18T05:21:54;7.30;99.90
7248;DHT22;3665;51.034;13.642;2023-02-18T05:26:41;7.30;99.90
7248;DHT22;3665;51.034;13.642;2023-02-18T05:31:30;7.30;99.90
7248;DHT22;3665;51.034;13.642;2023-02-18T05:36:19;7.20;1.00
7248;DHT22;3665;51.034;13.642;2023-02-18T05:41:06;7.20;1.00
7248;DHT22;3665;51.034;13.642;2023-02-18T05:45:57;7.30;99.90
7248;DHT22;3665;51.034;13.642;2023-02-18T05:50:42;7.20;1.00
7248;DHT22;3665;51.034;13.642;2023-02-18T05:55:30;7.10;99.90
7248;DHT22;3665;51.034;13.642;2023-02-18T06:00:19;7.20;46.00
7248;DHT22;3665;51.034;13.642;2023-02-18T06:05:07;7.30;99.90
7248;DHT22;3665;51.034;13.642;2023-02-18T06:09:57;7.30;1.00
7248;DHT22;3665;51.034;13.642;2023-02-18T06:14:42;7.40;1.00
7248;DHT22;3665;51.034;13.642;2023-02-18T06:19:35;7.40;1.00
7248;DHT22;3665;51.034;13.642;2023-02-18T06:24:19;7.30;1.00
7248;DHT22;3665;51.034;13.642;2023-02-18T06:29:06;7.20;99.90
7248;DHT22;3665;51.034;13.642;2023-02-18T06:33:56;7.20;99.90
7248;DHT22;3665;51.034;13.642;2023-02-18T06:38:43;7.30;99.90
7248;DHT22;3665;51.034;13.642;2023-02-18T06:43:32;7.20;99.90
7248;DHT22;3665;51.034;13.642;2023-02-18T06:48:17;7.20;99.90
7248;DHT22;3665;51.034;13.642;2023-02-18T06:53:11;7.30;99.90
7248;DHT22;3665;51.034;13.642;2023-02-18T06:57:54;7.30;99.90
7248;DHT22;3665;51.034;13.642;2023-02-18T07:02:42;7.40;99.90
7248;DHT22;3665;51.034;13.642;2023-02-18T07:07:31;7.30;99.90
7248;DHT22;3665;51.034;13.642;2023-02-18T07:12:20;7.30;99.90
7248;DHT22;3665;51.034;13.642;2023-02-18T07:17:05;7.30;99.90
7248;DHT22;3665;51.034;13.642;2023-02-18T07:21:58;7.40;99.90
7248;DHT22;3665;51.034;13.642;2023-02-18T07:26:42;7.30;99.90
7248;DHT22;3665;51.034;13.642;2023-02-18T07:31:32;7.30;99.90
7248;DHT22;3665;51.034;13.642;2023-02-18T07:36:17;7.40;99.90
7248;DHT22;3665;51.034;13.642;2023-02-18T07:41:14;7.40;99.90
7248;DHT22;3665;51.034;13.642;2023-02-18T07:46:09;7.40;99.90
7248;DHT22;3665;51.034;13.642;2023-02-18T07:50:59;7.40;99.90
7248;DHT22;3665;51.034;13.642;2023-02-18T07:55:46;7.50;99.90
7248;DHT22;3665;51.034;13.642;2023-02-18T08:00:34;7.60;99.90
7248;DHT22;3665;51.034;13.642;2023-02-18T08:05:22;7.60;99.90
7248;DHT22;3665;51.034;13.642;2023-02-18T08:10:11;7.60;99.90
7248;DHT22;3665;51.034;13.642;2023-02-18T08:14:59;7.60;99.90
7248;DHT22;3665;51.034;13.642;2023-02-18T08:19:48;7.70;99.90
7248;DHT22;3665;51.034;13.642;2023-02-18T08:24:34;7.70;99.90
7248;DHT22;3665;51.034;13.642;2023-02-18T08:29:24;7.70;99.90
7248;DHT22;3665;51.034;13.642;2023-02-18T08:34:09;7.80;99.90
7248;DHT22;3665;51.034;13.642;2023-02-18T08:39:04;7.80;99.90
7248;DHT22;3665;51.034;13.642;2023-02-18T08:43:48;7.90;99.90
7248;DHT22;3665;51.034;13.642;2023-02-18T08:48:36;8.00;99.90
7248;DHT22;3665;51.034;13.642;2023-02-18T08:53:22;8.20;99.90
7248;DHT22;3665;51.034;13.642;2023-02-18T08:58:10;8.20;99.90
7248;DHT22;3665;51.034;13.642;2023-02-18T09:03:00;8.40;99.90
7248;DHT22;3665;51.034;13.642;2023-02-18T09:07:45;8.70;99.90
7248;DHT22;3665;51.034;13.642;2023-02-18T09:12:33;8.90;99.90
7248;DHT22;3665;51.034;13.642;2023-02-18T09:17:25;9.10;99.90
7248;DHT22;3665;51.034;13.642;2023-02-18T09:22:09;9.40;99.90
7248;DHT22;3665;51.034;13.642;2023-02-18T09:26:58;9.60;99.90
7248;DHT22;3665;51.034;13.642;2023-02-18T09:31:51;9.80;99.90
7248;DHT22;3665;51.034;13.642;2023-02-18T09:36:37;9.80;99.90
7248;DHT22;3665;51.034;13.642;2023-02-18T09:41:40;10.10;99.90
7248;DHT22;3665;51.034;13.642;2023-02-18T09:46:29;10.20;99.90
7248;DHT22;3665;51.034;13.642;2023-02-18T09:51:15;10.40;99.90
7248;DHT22;3665;51.034;13.642;2023-02-18T09:56:11;10.30;99.90
7248;DHT22;3665;51.034;13.642;2023-02-18T10:01:16;10.30;99.90
7248;DHT22;3665;51.034;13.642;2023-02-18T10:06:45;10.40;99.90
7248;DHT22;3665;51.034;13.642;2023-02-18T10:11:37;10.30;99.90
7248;DHT22;3665;51.034;13.642;2023-02-18T10:16:35;10.10;99.90
7248;DHT22;3665;51.034;13.642;2023-02-18T10:21:24;9.90;99.90
7248;DHT22;3665;51.034;13.642;2023-02-18T10:26:14;10.00;99.90
7248;DHT22;3665;51.034;13.642;2023-02-18T10:31:02;10.10;99.90
7248;DHT22;3665;51.034;13.642;2023-02-18T10:36:10;10.20;99.90
7248;DHT22;3665;51.034;13.642;2023-02-18T10:41:33;10.40;99.90
7248;DHT22;3665;51.034;13.642;2023-02-18T10:46:47;10.30;99.90
7248;DHT22;3665;51.034;13.642;2023-02-18T10:51:49;10.20;99.90
7248;DHT22;3665;51.034;13.642;2023-02-18T10:56:38;10.30;99.90
7248;DHT22;3665;51.034;13.642;2023-02-18T11:01:23;10.50;99.90
7248;DHT22;3665;51.034;13.642;2023-02-18T11:06:28;10.80;99.90
7248;DHT22;3665;51.034;13.642;2023-02-18T11:11:50;10.90;99.90
7248;DHT22;3665;51.034;13.642;2023-02-18T11:16:50;11.10;99.90
7248;DHT22;3665;51.034;13.642;2023-02-18T11:21:44;11.20;99.90
7248;DHT22;3665;51.034;13.642;2023-02-18T11:26:59;11.20;99.90
7248;DHT22;3665;51.034;13.642;2023-02-18T11:31:48;11.30;99.90
7248;DHT22;3665;51.034;13.642;2023-02-18T11:36:38;11.30;99.90
7248;DHT22;3665;51.034;13.642;2023-02-18T11:41:41;11.30;99.90
7248;DHT22;3665;51.034;13.642;2023-02-18T11:47:01;11.30;1.00
7248;DHT22;3665;51.034;13.642;2023-02-18T11:51:48;11.20;1.00
7248;DHT22;3665;51.034;13.642;2023-02-18T12:02:49;11.00;1.00
7248;DHT22;3665;51.034;13.642;2023-02-18T12:07:49;10.80;1.00
7248;DHT22;3665;51.034;13.642;2023-02-18T12:12:37;10.70;99.90
7248;DHT22;3665;51.034;13.642;2023-02-18T12:17:59;10.50;1.00
7248;DHT22;3665;51.034;13.642;2023-02-18T12:23:05;10.50;99.90
7248;DHT22;3665;51.034;13.642;2023-02-18T12:34:16;10.30;1.00
7248;DHT22;3665;51.034;13.642;2023-02-18T12:40:02;10.40;99.90
7248;DHT22;3665;51.034;13.642;2023-02-18T12:45:44;10.40;1.00
7248;DHT22;3665;51.034;13.642;2023-02-18T12:57:09;9.90;49.80
7248;DHT22;3665;51.034;13.642;2023-02-18T13:08:04;9.80;99.90
7248;DHT22;3665;51.034;13.642;2023-02-18T13:13:22;9.70;1.00
7248;DHT22;3665;51.034;13.642;2023-02-18T13:19:05;9.70;99.90
7248;DHT22;3665;51.034;13.642;2023-02-18T13:24:39;9.90;99.90
7248;DHT22;3665;51.034;13.642;2023-02-18T13:35:36;10.10;99.90
7248;DHT22;3665;51.034;13.642;2023-02-18T13:40:34;9.90;99.90
7248;DHT22;3665;51.034;13.642;2023-02-18T13:45:24;9.50;99.90
7248;DHT22;3665;51.034;13.642;2023-02-18T13:50:27;9.30;99.90
7248;DHT22;3665;51.034;13.642;2023-02-18T13:55:21;9.30;99.90
7248;DHT22;3665;51.034;13.642;2023-02-18T14:00:38;9.30;99.90
7248;DHT22;3665;51.034;13.642;2023-02-18T14:05:39;9.10;99.90
7248;DHT22;3665;51.034;13.642;2023-02-18T14:10:34;9.10;99.90
7248;DHT22;3665;51.034;13.642;2023-02-18T14:16:24;9.20;99.90
7248;DHT22;3665;51.034;13.642;2023-02-18T14:21:39;9.20;99.90
7248;DHT22;3665;51.034;13.642;2023-02-18T14:27:20;9.20;99.90
7248;DHT22;3665;51.034;13.642;2023-02-18T14:33:30;9.10;99.90
7248;DHT22;3665;51.034;13.642;2023-02-18T14:38:59;9.00;99.90
7248;DHT22;3665;51.034;13.642;2023-02-18T14:49:43;9.10;99.90
7248;DHT22;3665;51.034;13.642;2023-02-18T14:55:14;9.20;97.40
7248;DHT22;3665;51.034;13.642;2023-02-18T15:00:56;9.20;95.40
7248;DHT22;3665;51.034;13.642;2023-02-18T15:05:44;9.10;99.90
7248;DHT22;3665;51.034;13.642;2023-02-18T15:11:03;9.00;99.90
7248;DHT22;3665;51.034;13.642;2023-02-18T15:16:35;8.80;1.00
7248;DHT22;3665;51.034;13.642;2023-02-18T15:21:39;8.80;99.90
7248;DHT22;3665;51.034;13.642;2023-02-18T15:26:47;8.80;1.00
7248;DHT22;3665;51.034;13.642;2023-02-18T15:32:19;8.80;99.90
7248;DHT22;3665;51.034;13.642;2023-02-18T15:37:11;9.00;99.90
7248;DHT22;3665;51.034;13.642;2023-02-18T15:41:56;9.20;99.90
7248;DHT22;3665;51.034;13.642;2023-02-18T15:46:42;9.30;99.90
7248;DHT22;3665;51.034;13.642;2023-02-18T15:51:30;9.40;94.20
7248;DHT22;3665;51.034;13.642;2023-02-18T15:56:28;9.40;64.50
7248;DHT22;3665;51.034;13.642;2023-02-18T16:01:38;9.40;69.90
7248;DHT22;3665;51.034;13.642;2023-02-18T16:06:29;9.40;56.40
7248;DHT22;3665;51.034;13.642;2023-02-18T16:11:23;9.40;71.20
7248;DHT22;3665;51.034;13.642;2023-02-18T16:16:27;9.40;66.60
7248;DHT22;3665;51.034;13.642;2023-02-18T16:21:29;9.40;60.40
7248;DHT22;3665;51.034;13.642;2023-02-18T16:26:45;9.30;71.70
7248;DHT22;3665;51.034;13.642;2023-02-18T16:31:31;9.30;69.70
7248;DHT22;3665;51.034;13.642;2023-02-18T16:36:19;9.20;76.00
7248;DHT22;3665;51.034;13.642;2023-02-18T16:41:05;9.30;65.60
7248;DHT22;3665;51.034;13.642;2023-02-18T16:46:11;9.30;66.30
7248;DHT22;3665;51.034;13.642;2023-02-18T16:51:03;9.30;81.60
7248;DHT22;3665;51.034;13.642;2023-02-18T16:55:48;9.20;74.00
7248;DHT22;3665;51.034;13.642;2023-02-18T17:00:36;9.30;65.10
7248;DHT22;3665;51.034;13.642;2023-02-18T17:05:23;9.30;58.50
7248;DHT22;3665;51.034;13.642;2023-02-18T17:10:13;9.30;62.00
7248;DHT22;3665;51.034;13.642;2023-02-18T17:14:59;9.30;73.00
7248;DHT22;3665;51.034;13.642;2023-02-18T17:19:47;9.20;94.80
7248;DHT22;3665;51.034;13.642;2023-02-18T17:24:36;9.00;99.90
7248;DHT22;3665;51.034;13.642;2023-02-18T17:29:45;9.00;99.90
7248;DHT22;3665;51.034;13.642;2023-02-18T17:34:41;8.90;99.90
7248;DHT22;3665;51.034;13.642;2023-02-18T17:39:31;8.80;99.90
7248;DHT22;3665;51.034;13.642;2023-02-18T17:44:22;8.90;99.90
7248;DHT22;3665;51.034;13.642;2023-02-18T17:49:08;8.70;99.90
7248;DHT22;3665;51.034;13.642;2023-02-18T17:53:54;8.80;99.90
7248;DHT22;3665;51.034;13.642;2023-02-18T17:58:42;8.90;99.90
7248;DHT22;3665;51.034;13.642;2023-02-18T18:03:30;9.00;99.90
7248;DHT22;3665;51.034;13.642;2023-02-18T18:08:21;8.90;99.90
7248;DHT22;3665;51.034;13.642;2023-02-18T18:13:11;9.00;99.90
7248;DHT22;3665;51.034;13.642;2023-02-18T18:18:04;9.20;99.60
7248;DHT22;3665;51.034;13.642;2023-02-18T18:23:01;9.20;89.10
7248;DHT22;3665;51.034;13.642;2023-02-18T18:27:48;9.20;91.60
7248;DHT22;3665;51.034;13.642;2023-02-18T18:32:33;9.20;87.70
7248;DHT22;3665;51.034;13.642;2023-02-18T18:37:24;9.20;99.90
7248;DHT22;3665;51.034;13.642;2023-02-18T18:42:11;8.90;99.90
7248;DHT22;3665;51.034;13.642;2023-02-18T18:46:58;8.80;99.90
7248;DHT22;3665;51.034;13.642;2023-02-18T18:51:47;8.60;1.00
7248;DHT22;3665;51.034;13.642;2023-02-18T18:56:36;8.70;99.90
7248;DHT22;3665;51.034;13.642;2023-02-18T19:01:22;8.70;99.90
7248;DHT22;3665;51.034;13.642;2023-02-18T19:06:10;8.80;99.90
7248;DHT22;3665;51.034;13.642;2023-02-18T19:11:00;8.80;99.90
7248;DHT22;3665;51.034;13.642;2023-02-18T19:15:48;8.80;99.90
7248;DHT22;3665;51.034;13.642;2023-02-18T19:20:34;8.80;99.90
7248;DHT22;3665;51.034;13.642;2023-02-18T19:25:22;8.80;99.90
7248;DHT22;3665;51.034;13.642;2023-02-18T19:30:13;8.70;99.90
7248;DHT22;3665;51.034;13.642;2023-02-18T19:34:57;8.80;99.90
7248;DHT22;3665;51.034;13.642;2023-02-18T19:39:46;8.70;99.90
7248;DHT22;3665;51.034;13.642;2023-02-18T19:44:35;8.70;99.90
7248;DHT22;3665;51.034;13.642;2023-02-18T19:49:25;8.50;99.90
7248;DHT22;3665;51.034;13.642;2023-02-18T19:54:10;8.40;99.90
7248;DHT22;3665;51.034;13.642;2023-02-18T19:59:00;8.40;99.90
7248;DHT22;3665;51.034;13.642;2023-02-18T20:03:45;8.30;99.90
7248;DHT22;3665;51.034;13.642;2023-02-18T20:08:29;8.30;1.00
7248;DHT22;3665;51.034;13.642;2023-02-18T20:13:18;8.40;1.00
7248;DHT22;3665;51.034;13.642;2023-02-18T20:18:10;8.30;1.00
7248;DHT22;3665;51.034;13.642;2023-02-18T20:22:58;8.20;1.00
7248;DHT22;3665;51.034;13.642;2023-02-18T20:27:49;8.20;1.00
7248;DHT22;3665;51.034;13.642;2023-02-18T20:32:42;8.20;1.00
7248;DHT22;3665;51.034;13.642;2023-02-18T20:37:30;8.30;1.00
7248;DHT22;3665;51.034;13.642;2023-02-18T20:42:29;8.50;1.00
7248;DHT22;3665;51.034;13.642;2023-02-18T20:47:14;8.30;1.00
7248;DHT22;3665;51.034;13.642;2023-02-18T20:52:01;8.30;1.00
7248;DHT22;3665;51.034;13.642;2023-02-18T20:56:51;8.20;1.00
7248;DHT22;3665;51.034;13.642;2023-02-18T21:01:38;8.30;1.00
7248;DHT22;3665;51.034;13.642;2023-02-18T21:06:23;8.20;1.00
7248;DHT22;3665;51.034;13.642;2023-02-18T21:11:09;8.20;1.00
7248;DHT22;3665;51.034;13.642;2023-02-18T21:15:54;8.30;99.90
7248;DHT22;3665;51.034;13.642;2023-02-18T21:20:39;8.50;99.90
7248;DHT22;3665;51.034;13.642;2023-02-18T21:25:22;8.30;1.00
7248;DHT22;3665;51.034;13.642;2023-02-18T21:30:32;8.40;1.00
7248;DHT22;3665;51.034;13.642;2023-02-18T21:35:45;8.40;1.00
7248;DHT22;3665;51.034;13.642;2023-02-18T21:41:12;8.40;1.00
7248;DHT22;3665;51.034;13.642;2023-02-18T21:53:31;8.50;17.00
7248;DHT22;3665;51.034;13.642;2023-02-18T22:10:12;8.20;99.90
7248;DHT22;3665;51.034;13.642;2023-02-18T22:16:09;8.20;1.00
7248;DHT22;3665;51.034;13.642;2023-02-18T22:22:14;8.20;1.00
7248;DHT22;3665;51.034;13.642;2023-02-18T22:27:37;8.30;99.90
7248;DHT22;3665;51.034;13.642;2023-02-18T22:33:43;8.40;99.90
7248;DHT22;3665;51.034;13.642;2023-02-18T22:38:59;8.40;1.00
7248;DHT22;3665;51.034;13.642;2023-02-18T22:43:52;8.30;1.00
7248;DHT22;3665;51.034;13.642;2023-02-18T22:48:36;8.10;1.00
7248;DHT22;3665;51.034;13.642;2023-02-18T22:53:28;8.00;1.00
7248;DHT22;3665;51.034;13.642;2023-02-18T22:58:25;8.00;99.90
7248;DHT22;3665;51.034;13.642;2023-02-18T23:03:20;8.00;1.00
7248;DHT22;3665;51.034;13.642;2023-02-18T23:08:03;8.00;1.00
7248;DHT22;3665;51.034;13.642;2023-02-18T23:12:53;8.00;3.30
7248;DHT22;3665;51.034;13.642;2023-02-18T23:17:55;8.10;1.00
7248;DHT22;3665;51.034;13.642;2023-02-18T23:23:18;8.00;1.00
7248;DHT22;3665;51.034;13.642;2023-02-18T23:28:02;8.10;1.00
7248;DHT22;3665;51.034;13.642;2023-02-18T23:33:13;8.10;1.00
7248;DHT22;3665;51.034;13.642;2023-02-18T23:38:47;8.10;1.00
7248;DHT22;3665;51.034;13.642;2023-02-18T23:44:09;8.00;1.00
7248;DHT22;3665;51.034;13.642;2023-02-18T23:49:23;8.00;99.90
7248;DHT22;3665;51.034;13.642;2023-02-18T23:54:25;8.10;1.00
7248;DHT22;3665;51.034;13.642;2023-02-18T23:59:20;8.10;1.00
